Time;durP1;ratioP1;P1;durP2;ratioP2;P2;SDS_P1;SDS_P2;PMS_P1;PMS_P2;Temp;Humidity;BMP_temperature;BMP_pressure;BME280_temperature;BME280_humidity;BME280_pressure;Samples;Min_cycle;Max_cycle;Signal;HPM_P1;HPM_P2
2024/02/16 00:00:26;;;;;;;22.37;9.10;;;6.70;99.90;;;;;;5011197;28;20419;-59
2024/02/16 00:02:52;;;;;;;13.00;8.30;;;6.70;99.90;;;;;;5018405;28;20435;-58
2024/02/16 00:05:18;;;;;;;18.67;9.00;;;6.70;99.90;;;;;;5012722;28;20519;-59
2024/02/16 00:07:44;;;;;;;17.33;9.07;;;6.70;99.90;;;;;;5008858;28;20176;-60
2024/02/16 00:10:11;;;;;;;12.07;8.40;;;6.70;99.90;;;;;;5005148;28;20431;-60
2024/02/16 00:12:39;;;;;;;16.53;9.23;;;6.70;99.90;;;;;;5008950;28;20196;-59
2024/02/16 00:15:06;;;;;;;16.97;9.67;;;6.70;99.90;;;;;;5008862;28;20450;-60
2024/02/16 00:17:31;;;;;;;17.93;8.93;;;6.70;99.90;;;;;;5009265;28;20435;-58
2024/02/16 00:19:57;;;;;;;16.10;8.60;;;6.70;99.90;;;;;;5004072;28;20871;-60
2024/02/16 00:22:23;;;;;;;21.63;9.23;;;6.70;99.90;;;;;;5006200;28;20612;-58
2024/02/16 00:24:49;;;;;;;20.80;9.90;;;6.70;99.90;;;;;;5008228;28;20190;-59
2024/02/16 00:27:15;;;;;;;15.33;8.90;;;6.70;99.90;;;;;;5011830;28;20434;-59
2024/02/16 00:29:41;;;;;;;15.23;9.23;;;6.70;99.90;;;;;;5006236;28;20226;-59
2024/02/16 00:32:07;;;;;;;16.17;9.37;;;6.70;99.90;;;;;;5009253;28;20446;-59
2024/02/16 00:34:35;;;;;;;16.20;9.30;;;6.60;99.90;;;;;;5012184;28;20403;-58
2024/02/16 00:37:00;;;;;;;18.20;9.10;;;6.60;99.90;;;;;;5012860;28;20434;-59
2024/02/16 00:39:26;;;;;;;16.00;10.37;;;6.60;99.90;;;;;;5003774;28;20841;-59
2024/02/16 00:41:52;;;;;;;20.87;9.90;;;6.60;99.90;;;;;;5011386;28;20538;-59
2024/02/16 00:44:18;;;;;;;15.30;9.30;;;6.60;99.90;;;;;;5006128;28;20176;-60
2024/02/16 00:46:44;;;;;;;15.13;9.33;;;6.60;99.90;;;;;;5009242;28;20400;-59
2024/02/16 00:49:10;;;;;;;19.20;9.57;;;6.60;99.90;;;;;;5010042;28;20183;-60
2024/02/16 00:51:39;;;;;;;18.97;9.50;;;6.60;99.90;;;;;;5008933;28;20463;-59
2024/02/16 00:54:05;;;;;;;15.30;9.07;;;6.60;99.90;;;;;;5008665;28;20315;-59
2024/02/16 00:56:32;;;;;;;18.17;9.60;;;6.50;99.90;;;;;;5008527;28;20897;-58
2024/02/16 00:58:57;;;;;;;18.10;8.23;;;6.50;99.90;;;;;;5008531;28;20459;-59
2024/02/16 01:01:24;;;;;;;15.33;9.07;;;6.60;99.90;;;;;;5007468;28;20451;-57
2024/02/16 01:03:51;;;;;;;21.03;9.70;;;6.60;99.90;;;;;;5008866;28;20215;-59
2024/02/16 01:06:17;;;;;;;20.37;10.77;;;6.50;99.90;;;;;;5003201;28;20416;-58
2024/02/16 01:08:43;;;;;;;18.00;11.23;;;6.50;99.90;;;;;;5006725;28;20431;-58
2024/02/16 01:11:09;;;;;;;21.63;12.57;;;6.50;99.90;;;;;;5004814;28;20463;-59
2024/02/16 01:13:34;;;;;;;27.90;12.93;;;6.50;99.90;;;;;;5002533;28;20620;-58
2024/02/16 01:16:00;;;;;;;23.40;12.80;;;6.50;99.90;;;;;;5008617;28;20185;-59
2024/02/16 01:18:27;;;;;;;20.50;11.63;;;6.50;99.90;;;;;;5006209;28;20201;-59
2024/02/16 01:20:53;;;;;;;24.70;10.97;;;6.50;99.90;;;;;;5009630;28;20200;-59
2024/02/16 01:23:20;;;;;;;25.40;10.47;;;6.50;99.90;;;;;;5008973;28;20444;-60
2024/02/16 01:25:46;;;;;;;20.57;9.83;;;6.50;99.90;;;;;;5005091;28;20176;-57
2024/02/16 01:28:12;;;;;;;15.33;9.17;;;6.50;99.90;;;;;;5005170;28;20412;-58
2024/02/16 01:30:39;;;;;;;19.57;9.80;;;6.50;99.90;;;;;;5003059;28;20538;-59
2024/02/16 01:33:06;;;;;;;12.20;8.17;;;6.50;99.90;;;;;;5005558;28;20450;-58
2024/02/16 01:35:32;;;;;;;12.77;8.10;;;6.50;99.90;;;;;;5004538;28;21059;-58
2024/02/16 01:37:57;;;;;;;14.40;8.70;;;6.50;99.90;;;;;;5006060;28;21017;-59
2024/02/16 01:40:26;;;;;;;16.27;8.70;;;6.50;99.90;;;;;;5006704;28;20538;-58
2024/02/16 01:42:52;;;;;;;17.73;9.60;;;6.50;99.90;;;;;;5002982;28;20216;-60
2024/02/16 01:45:18;;;;;;;16.97;9.77;;;6.50;99.90;;;;;;5015205;28;20786;-59
2024/02/16 01:47:46;;;;;;;17.10;9.70;;;6.50;99.90;;;;;;5003816;28;20427;-60
2024/02/16 01:50:14;;;;;;;15.90;8.90;;;6.50;99.90;;;;;;5013238;28;20172;-59
2024/02/16 01:52:40;;;;;;;17.87;9.37;;;6.50;99.90;;;;;;5007843;28;20451;-58
2024/02/16 01:55:08;;;;;;;20.30;8.90;;;6.60;99.90;;;;;;5000689;28;20526;-58
2024/02/16 01:57:34;;;;;;;14.13;8.40;;;6.60;99.90;;;;;;5007458;28;20263;-58
2024/02/16 02:00:00;;;;;;;12.33;8.40;;;6.50;99.90;;;;;;5005478;28;21112;-59
2024/02/16 02:02:26;;;;;;;17.50;9.50;;;6.60;99.90;;;;;;5007662;28;20201;-62
2024/02/16 02:04:52;;;;;;;14.27;8.70;;;6.60;99.90;;;;;;5001217;28;20191;-60
2024/02/16 02:07:17;;;;;;;15.43;8.40;;;6.50;99.90;;;;;;5009684;28;20415;-59
2024/02/16 02:09:43;;;;;;;15.60;8.13;;;6.50;99.90;;;;;;5004919;28;20184;-58
2024/02/16 02:12:09;;;;;;;14.93;8.60;;;6.50;99.90;;;;;;5010198;28;20200;-60
2024/02/16 02:14:37;;;;;;;19.50;8.43;;;6.50;99.90;;;;;;5008076;28;20562;-58
2024/02/16 02:17:03;;;;;;;15.17;8.30;;;6.50;99.90;;;;;;5008999;28;20481;-58
2024/02/16 02:19:29;;;;;;;15.50;8.17;;;6.50;99.90;;;;;;5007622;28;20455;-58
2024/02/16 02:21:56;;;;;;;12.93;7.47;;;6.40;99.90;;;;;;5006988;28;21016;-58
2024/02/16 02:24:22;;;;;;;14.90;6.80;;;6.40;99.90;;;;;;5007199;28;20486;-59
2024/02/16 02:26:48;;;;;;;17.10;8.20;;;6.40;99.90;;;;;;5001784;28;20435;-58
2024/02/16 02:29:13;;;;;;;13.10;7.60;;;6.40;99.90;;;;;;5009301;28;20176;-58
2024/02/16 02:31:40;;;;;;;11.70;7.50;;;6.40;99.90;;;;;;5009951;28;20235;-59
2024/02/16 02:34:06;;;;;;;12.40;8.60;;;6.40;99.90;;;;;;5011847;28;20565;-58
2024/02/16 02:36:32;;;;;;;14.43;7.73;;;6.50;99.90;;;;;;5007723;28;20514;-57
2024/02/16 02:38:58;;;;;;;13.67;7.60;;;6.50;99.90;;;;;;5007342;28;20207;-59
2024/02/16 02:41:24;;;;;;;14.27;8.00;;;6.50;99.90;;;;;;5003554;28;20444;-58
2024/02/16 02:43:52;;;;;;;12.33;7.40;;;6.50;99.90;;;;;;5005788;28;20180;-58
2024/02/16 02:46:18;;;;;;;14.03;7.87;;;6.40;99.90;;;;;;5006532;28;20177;-59
2024/02/16 02:48:45;;;;;;;12.90;7.90;;;6.40;99.90;;;;;;5003958;28;20442;-58
2024/02/16 02:51:10;;;;;;;12.67;8.40;;;6.30;99.90;;;;;;5018500;28;20197;-58
2024/02/16 02:53:36;;;;;;;11.83;7.23;;;6.30;99.90;;;;;;5003951;28;20470;-58
2024/02/16 02:56:03;;;;;;;13.87;7.37;;;6.30;99.90;;;;;;5004413;28;20196;-58
2024/02/16 02:58:28;;;;;;;14.40;7.73;;;6.30;99.90;;;;;;5003587;28;20791;-58
2024/02/16 03:00:54;;;;;;;11.73;7.33;;;6.30;99.90;;;;;;5008557;28;20550;-59
2024/02/16 03:03:21;;;;;;;11.47;7.63;;;6.30;99.90;;;;;;5017849;28;20581;-58
2024/02/16 03:05:47;;;;;;;11.87;7.63;;;6.20;99.90;;;;;;5006402;28;20423;-55
2024/02/16 03:08:12;;;;;;;9.73;7.00;;;6.20;99.90;;;;;;5009857;28;20914;-58
2024/02/16 03:10:39;;;;;;;16.20;6.77;;;6.10;99.90;;;;;;5006884;28;20191;-56
2024/02/16 03:13:06;;;;;;;13.63;7.57;;;6.10;99.90;;;;;;5004114;28;20211;-58
2024/02/16 03:15:33;;;;;;;11.53;7.20;;;6.00;99.90;;;;;;4995306;28;20439;-59
2024/02/16 03:17:59;;;;;;;9.60;7.03;;;6.00;99.90;;;;;;5003306;28;21009;-58
2024/02/16 03:20:25;;;;;;;13.20;7.00;;;6.00;99.90;;;;;;5007842;28;20411;-58
2024/02/16 03:22:50;;;;;;;10.10;6.80;;;5.90;99.90;;;;;;5014326;28;21719;-58
2024/02/16 03:25:16;;;;;;;10.80;6.80;;;5.90;99.90;;;;;;5015296;28;20168;-59
2024/02/16 03:27:42;;;;;;;9.03;6.37;;;5.90;99.90;;;;;;5013517;28;20598;-57
2024/02/16 03:30:08;;;;;;;10.30;6.47;;;5.90;99.90;;;;;;5011174;28;20176;-58
2024/02/16 03:32:34;;;;;;;10.17;6.30;;;5.90;99.90;;;;;;5009984;28;21019;-58
2024/02/16 03:35:00;;;;;;;10.50;6.20;;;5.90;99.90;;;;;;5010461;28;20407;-58
2024/02/16 03:37:26;;;;;;;8.37;5.83;;;5.90;99.90;;;;;;5008357;28;20184;-59
2024/02/16 03:39:53;;;;;;;8.30;6.07;;;5.90;99.90;;;;;;5008350;28;20494;-60
2024/02/16 03:42:19;;;;;;;9.80;5.93;;;5.90;99.90;;;;;;5011020;28;20764;-56
2024/02/16 03:44:45;;;;;;;9.47;6.23;;;5.90;99.90;;;;;;5007510;28;20427;-59
2024/02/16 03:47:10;;;;;;;11.20;6.80;;;5.80;99.90;;;;;;5004511;28;20426;-58
2024/02/16 03:49:37;;;;;;;13.70;6.70;;;5.80;99.90;;;;;;5011649;28;20191;-58
2024/02/16 03:52:03;;;;;;;11.10;6.57;;;5.80;99.90;;;;;;5004405;28;20200;-59
2024/02/16 03:54:29;;;;;;;8.87;6.20;;;5.80;99.90;;;;;;5010985;28;20485;-58
2024/02/16 03:56:55;;;;;;;9.47;6.20;;;5.80;99.90;;;;;;5007154;28;20263;-59
2024/02/16 03:59:21;;;;;;;18.40;6.80;;;5.80;99.90;;;;;;5011401;28;20446;-58
2024/02/16 04:01:46;;;;;;;9.97;6.40;;;5.80;99.90;;;;;;5006508;28;21208;-58
2024/02/16 04:04:12;;;;;;;12.20;7.03;;;5.80;99.90;;;;;;5011537;28;20176;-58
2024/02/16 04:06:39;;;;;;;11.70;6.77;;;5.80;99.90;;;;;;5012533;28;20181;-59
2024/02/16 04:09:08;;;;;;;12.07;6.80;;;5.80;99.90;;;;;;5010431;28;20659;-58
2024/02/16 04:11:34;;;;;;;8.97;5.50;;;5.80;99.90;;;;;;5008645;28;21145;-59
2024/02/16 04:13:59;;;;;;;10.90;7.20;;;5.80;99.90;;;;;;5014057;28;20464;-58
2024/02/16 04:16:25;;;;;;;9.93;6.57;;;5.80;99.90;;;;;;5010972;28;21048;-57
2024/02/16 04:18:51;;;;;;;9.10;5.90;;;5.80;99.90;;;;;;5008095;28;20204;-58
2024/02/16 04:21:17;;;;;;;14.63;6.33;;;5.70;99.90;;;;;;5009084;28;20203;-57
2024/02/16 04:23:43;;;;;;;9.83;6.30;;;5.80;99.90;;;;;;5011518;28;20404;-58
2024/02/16 04:26:09;;;;;;;13.30;6.20;;;5.70;99.90;;;;;;5010252;28;20176;-59
2024/02/16 04:28:35;;;;;;;13.03;6.60;;;5.70;99.90;;;;;;5002009;28;20416;-58
2024/02/16 04:31:01;;;;;;;9.27;6.00;;;5.70;99.90;;;;;;5006942;28;20177;-57
2024/02/16 04:33:26;;;;;;;10.43;5.50;;;5.60;99.90;;;;;;5005040;28;20522;-59
2024/02/16 04:35:52;;;;;;;10.67;6.73;;;5.60;99.90;;;;;;5007842;28;20223;-59
2024/02/16 04:38:18;;;;;;;10.77;6.10;;;5.60;99.90;;;;;;5009892;28;20188;-58
2024/02/16 04:40:43;;;;;;;9.40;6.10;;;5.60;99.90;;;;;;5006697;28;20669;-58
2024/02/16 04:43:09;;;;;;;8.30;5.23;;;5.60;99.90;;;;;;5004458;28;20197;-58
2024/02/16 04:45:35;;;;;;;7.83;4.60;;;5.60;99.90;;;;;;5007701;28;20189;-58
2024/02/16 04:48:08;;;;;;;11.00;5.20;;;5.50;99.90;;;;;;5002597;28;20184;-57
2024/02/16 04:50:34;;;;;;;9.20;5.10;;;5.50;99.90;;;;;;5008551;28;20523;-58
2024/02/16 04:53:03;;;;;;;6.90;4.87;;;5.50;99.90;;;;;;5009671;28;20466;-58
2024/02/16 04:55:29;;;;;;;8.57;5.40;;;5.50;99.90;;;;;;5010039;28;20925;-59
2024/02/16 04:57:55;;;;;;;10.33;6.00;;;5.50;99.90;;;;;;5008715;28;20426;-59
2024/02/16 05:00:21;;;;;;;11.93;6.27;;;5.50;99.90;;;;;;5009658;28;20974;-59
2024/02/16 05:02:47;;;;;;;11.23;5.57;;;5.50;99.90;;;;;;5002428;28;20458;-58
2024/02/16 05:05:13;;;;;;;10.90;6.07;;;5.40;99.90;;;;;;5010916;28;20177;-57
2024/02/16 05:07:38;;;;;;;11.87;6.33;;;5.50;99.90;;;;;;5006973;28;20269;-58
2024/02/16 05:10:08;;;;;;;13.13;6.30;;;5.50;99.90;;;;;;5010763;28;20542;-58
2024/02/16 05:12:34;;;;;;;13.83;6.50;;;5.50;99.90;;;;;;5008611;28;20222;-59
2024/02/16 05:15:00;;;;;;;11.27;6.17;;;5.50;99.90;;;;;;5008319;28;20917;-59
2024/02/16 05:17:26;;;;;;;9.70;6.30;;;5.50;99.90;;;;;;5007068;28;20183;-59
2024/02/16 05:19:53;;;;;;;13.47;6.77;;;5.60;99.90;;;;;;5006912;28;20547;-59
2024/02/16 05:22:19;;;;;;;12.00;7.53;;;5.60;99.90;;;;;;5005946;28;20196;-59
2024/02/16 05:24:45;;;;;;;12.23;7.43;;;5.60;99.90;;;;;;5008767;28;20461;-58
2024/02/16 05:27:10;;;;;;;11.10;7.70;;;5.60;99.90;;;;;;5006768;28;20175;-58
2024/02/16 05:29:36;;;;;;;11.27;7.40;;;5.60;99.90;;;;;;5009442;28;20272;-59
2024/02/16 05:32:02;;;;;;;13.17;7.83;;;5.60;99.90;;;;;;5006618;28;20671;-58
2024/02/16 05:34:32;;;;;;;10.57;7.40;;;5.60;99.90;;;;;;5000241;28;20272;-59
2024/02/16 05:36:57;;;;;;;14.20;8.00;;;5.60;99.90;;;;;;5005361;28;20179;-58
2024/02/16 05:39:26;;;;;;;18.10;7.40;;;5.60;99.90;;;;;;5004279;28;20466;-59
2024/02/16 05:41:55;;;;;;;12.30;7.67;;;5.60;99.90;;;;;;5001603;28;20205;-57
2024/02/16 05:44:21;;;;;;;13.80;6.87;;;5.60;99.90;;;;;;5000462;28;20548;-59
2024/02/16 05:46:47;;;;;;;12.50;7.37;;;5.60;99.90;;;;;;5000742;28;20926;-59
2024/02/16 05:49:13;;;;;;;13.77;7.47;;;5.50;99.90;;;;;;5007727;28;20176;-60
2024/02/16 05:51:42;;;;;;;11.70;7.43;;;5.50;99.90;;;;;;5004297;28;20347;-59
2024/02/16 05:54:07;;;;;;;12.67;6.17;;;5.50;99.90;;;;;;5014682;28;22066;-59
2024/02/16 05:56:39;;;;;;;10.30;6.43;;;5.50;99.90;;;;;;5008923;28;20441;-59
2024/02/16 05:59:05;;;;;;;8.93;5.83;;;5.50;99.90;;;;;;5009387;28;20207;-59
2024/02/16 06:01:31;;;;;;;9.43;7.70;;;5.50;99.90;;;;;;5009992;28;20550;-60
2024/02/16 06:03:56;;;;;;;9.77;6.47;;;5.50;99.90;;;;;;5006245;28;20514;-60
2024/02/16 06:06:22;;;;;;;14.60;5.57;;;5.60;99.90;;;;;;5011590;28;20341;-58
2024/02/16 06:08:48;;;;;;;9.37;6.17;;;5.60;99.90;;;;;;5008849;28;20183;-61
2024/02/16 06:11:15;;;;;;;11.80;6.20;;;5.60;99.90;;;;;;5000968;28;20263;-59
2024/02/16 06:13:40;;;;;;;9.00;6.10;;;5.60;99.90;;;;;;5007168;28;20187;-60
2024/02/16 06:16:08;;;;;;;8.47;5.93;;;5.60;99.90;;;;;;5003769;28;20443;-61
2024/02/16 06:18:37;;;;;;;11.63;6.13;;;5.60;99.90;;;;;;5008256;28;20254;-60
2024/02/16 06:21:03;;;;;;;16.33;6.70;;;5.60;99.90;;;;;;5004668;28;20510;-61
2024/02/16 06:23:29;;;;;;;10.90;6.87;;;5.60;99.90;;;;;;5007180;28;20416;-58
2024/02/16 06:25:54;;;;;;;11.23;6.47;;;5.60;99.90;;;;;;5004037;28;21134;-59
2024/02/16 06:28:20;;;;;;;9.37;6.63;;;5.60;99.90;;;;;;5007007;28;20172;-59
2024/02/16 06:30:48;;;;;;;8.73;6.10;;;5.60;99.90;;;;;;5003891;28;20172;-59
2024/02/16 06:33:14;;;;;;;12.07;6.83;;;5.60;99.90;;;;;;4999955;28;20188;-60
2024/02/16 06:35:39;;;;;;;13.93;7.70;;;5.60;99.90;;;;;;5002695;28;20427;-61
2024/02/16 06:38:05;;;;;;;10.90;6.50;;;5.60;99.90;;;;;;5007662;28;20180;-59
2024/02/16 06:40:31;;;;;;;11.03;7.10;;;5.60;99.90;;;;;;5002029;28;20235;-59
2024/02/16 06:42:57;;;;;;;15.00;7.03;;;5.60;99.90;;;;;;5003622;28;20214;-61
2024/02/16 06:45:22;;;;;;;10.80;7.17;;;5.60;99.90;;;;;;5000428;28;20418;-60
2024/02/16 06:47:49;;;;;;;14.50;7.57;;;5.60;99.90;;;;;;4998771;28;20184;-58
2024/02/16 06:50:15;;;;;;;12.90;7.10;;;5.70;99.90;;;;;;5000602;28;20169;-60
2024/02/16 06:52:40;;;;;;;13.67;8.17;;;5.70;99.90;;;;;;4998659;28;20455;-59
2024/02/16 06:55:06;;;;;;;14.43;8.70;;;5.70;99.90;;;;;;4998295;28;20184;-62
2024/02/16 06:57:32;;;;;;;12.63;8.20;;;5.70;99.90;;;;;;5001435;28;20188;-60
2024/02/16 06:59:58;;;;;;;22.63;10.47;;;5.70;99.90;;;;;;5004262;28;20272;-61
2024/02/16 07:02:24;;;;;;;18.20;10.40;;;5.70;99.90;;;;;;5003422;28;20278;-61
2024/02/16 07:04:49;;;;;;;22.03;10.67;;;5.70;99.90;;;;;;5002506;28;20172;-60
2024/02/16 07:07:15;;;;;;;30.80;14.23;;;5.70;99.90;;;;;;5001167;28;20424;-61
2024/02/16 07:09:41;;;;;;;26.23;11.57;;;5.70;99.90;;;;;;5001781;28;20176;-61
2024/02/16 07:12:07;;;;;;;16.40;10.53;;;5.80;99.90;;;;;;5005271;28;20208;-61
2024/02/16 07:14:33;;;;;;;20.73;10.17;;;5.80;99.90;;;;;;5005907;28;20431;-61
2024/02/16 07:16:58;;;;;;;12.90;9.20;;;5.80;99.90;;;;;;5005717;28;20453;-61
2024/02/16 07:19:24;;;;;;;13.67;9.50;;;5.80;99.90;;;;;;5005003;28;20211;-61
2024/02/16 07:21:50;;;;;;;11.87;8.10;;;5.80;99.90;;;;;;5008748;28;20255;-60
2024/02/16 07:24:16;;;;;;;14.37;8.30;;;5.90;99.90;;;;;;4999772;28;20436;-61
2024/02/16 07:26:42;;;;;;;12.50;9.10;;;5.90;99.90;;;;;;4999437;28;20176;-61
2024/02/16 07:29:08;;;;;;;13.53;9.20;;;5.90;99.90;;;;;;4999658;28;20431;-61
2024/02/16 07:31:34;;;;;;;15.83;9.67;;;5.90;99.90;;;;;;4997201;28;20196;-61
2024/02/16 07:34:00;;;;;;;14.33;9.13;;;5.90;99.90;;;;;;4999927;28;20431;-61
2024/02/16 07:38:54;;;;;;;18.10;9.07;;;6.00;99.90;;;;;;5001778;28;20549;-56
2024/02/16 07:41:20;;;;;;;12.77;8.03;;;6.00;99.90;;;;;;5006378;28;20411;-56
2024/02/16 07:43:45;;;;;;;14.30;9.10;;;6.00;99.90;;;;;;5003771;28;20411;-55
2024/02/16 07:46:11;;;;;;;12.27;7.80;;;6.10;99.90;;;;;;5006025;28;20652;-55
2024/02/16 07:48:37;;;;;;;11.10;7.47;;;6.10;99.90;;;;;;4990632;28;20267;-56
2024/02/16 07:51:03;;;;;;;16.50;8.10;;;6.10;99.90;;;;;;4985139;28;20212;-58
2024/02/16 07:53:29;;;;;;;23.30;9.87;;;6.10;99.90;;;;;;4983674;28;20272;-59
2024/02/16 07:55:54;;;;;;;16.53;8.43;;;6.20;99.90;;;;;;4979438;28;20436;-57
2024/02/16 07:58:20;;;;;;;16.07;8.87;;;6.20;99.90;;;;;;4980768;28;20455;-57
2024/02/16 08:00:46;;;;;;;10.73;6.83;;;6.20;99.90;;;;;;4985183;28;20552;-57
2024/02/16 08:03:11;;;;;;;13.43;7.03;;;6.30;99.90;;;;;;4983338;28;20189;-57
2024/02/16 08:05:37;;;;;;;13.00;7.40;;;6.30;99.90;;;;;;4981691;28;20624;-57
2024/02/16 08:08:03;;;;;;;15.03;7.77;;;6.40;99.90;;;;;;4988543;28;20625;-58
2024/02/16 08:10:29;;;;;;;11.50;7.70;;;6.50;99.90;;;;;;4988873;28;20192;-57
2024/02/16 08:12:54;;;;;;;13.50;7.77;;;6.50;99.90;;;;;;4989094;28;20451;-57
2024/02/16 08:15:23;;;;;;;11.10;7.20;;;6.60;99.90;;;;;;4990297;28;20181;-59
2024/02/16 08:17:52;;;;;;;12.27;7.20;;;6.60;99.90;;;;;;4988615;28;20208;-58
2024/02/16 08:20:18;;;;;;;13.33;7.50;;;6.70;99.90;;;;;;4987952;28;20492;-56
2024/02/16 08:22:44;;;;;;;13.20;6.70;;;6.70;99.90;;;;;;4989747;28;20487;-58
2024/02/16 08:25:09;;;;;;;9.70;7.20;;;6.70;99.90;;;;;;4987566;28;20436;-57
2024/02/16 08:27:35;;;;;;;13.47;7.60;;;6.80;99.90;;;;;;4993926;28;20289;-57
2024/02/16 08:30:03;;;;;;;12.30;8.20;;;6.90;99.90;;;;;;4988188;28;20193;-59
2024/02/16 08:32:29;;;;;;;10.23;7.50;;;6.90;99.90;;;;;;4985329;28;20185;-58
2024/02/16 08:34:55;;;;;;;10.00;6.83;;;7.00;99.90;;;;;;4985418;28;20514;-57
2024/02/16 08:37:21;;;;;;;13.87;7.60;;;7.10;99.90;;;;;;4987742;28;20879;-57
2024/02/16 08:39:47;;;;;;;10.60;7.63;;;7.20;99.90;;;;;;4983004;28;20525;-57
2024/02/16 08:42:13;;;;;;;13.70;9.37;;;7.30;99.90;;;;;;4988945;28;20435;-58
2024/02/16 08:44:40;;;;;;;12.00;8.00;;;7.40;99.90;;;;;;4989181;28;20178;-58
2024/02/16 08:47:07;;;;;;;12.37;8.13;;;7.40;99.90;;;;;;4989400;28;20692;-58
2024/02/16 08:49:33;;;;;;;17.10;10.67;;;7.50;99.90;;;;;;4969386;28;20443;-57
2024/02/16 08:51:59;;;;;;;21.60;10.10;;;7.60;99.90;;;;;;4989863;28;20946;-58
2024/02/16 08:54:25;;;;;;;22.00;9.40;;;7.60;99.90;;;;;;4988948;28;20420;-57
2024/02/16 08:56:52;;;;;;;19.00;10.07;;;7.70;99.90;;;;;;4990094;28;20204;-57
2024/02/16 08:59:18;;;;;;;13.27;9.37;;;7.70;99.90;;;;;;4986628;28;20197;-58
2024/02/16 09:01:44;;;;;;;15.13;8.97;;;7.80;99.90;;;;;;4989771;28;20787;-57
2024/02/16 09:04:09;;;;;;;14.07;8.67;;;7.90;99.90;;;;;;4988015;28;20177;-59
2024/02/16 09:06:35;;;;;;;17.03;8.50;;;7.90;99.90;;;;;;4989467;28;20657;-58
2024/02/16 09:09:01;;;;;;;15.67;9.07;;;8.00;99.90;;;;;;4988953;28;20177;-58
2024/02/16 09:11:27;;;;;;;14.30;9.30;;;8.00;99.90;;;;;;4987231;28;20555;-57
2024/02/16 09:13:53;;;;;;;16.90;9.40;;;8.10;99.90;;;;;;4984905;28;20261;-56
2024/02/16 09:16:19;;;;;;;20.80;11.10;;;8.20;99.90;;;;;;4988822;28;20559;-57
2024/02/16 09:18:45;;;;;;;18.90;11.20;;;8.30;99.90;;;;;;4987143;28;20197;-57
2024/02/16 09:21:10;;;;;;;19.27;10.97;;;8.40;99.90;;;;;;4985481;28;20432;-57
2024/02/16 09:23:37;;;;;;;19.90;10.13;;;8.60;99.90;;;;;;4984439;28;20439;-59
2024/02/16 09:26:03;;;;;;;16.13;9.43;;;8.70;99.90;;;;;;4985503;28;20170;-58
2024/02/16 09:28:29;;;;;;;16.50;9.57;;;8.80;99.90;;;;;;4992744;28;20454;-57
2024/02/16 09:30:55;;;;;;;14.93;8.43;;;9.00;99.90;;;;;;4991923;28;20200;-58
2024/02/16 09:33:21;;;;;;;15.40;8.00;;;9.10;99.90;;;;;;4986847;28;20173;-58
2024/02/16 09:35:50;;;;;;;14.67;8.20;;;9.30;99.90;;;;;;4987230;28;20507;-56
2024/02/16 09:38:16;;;;;;;12.20;7.73;;;9.40;99.90;;;;;;4988589;28;20452;-58
2024/02/16 09:40:42;;;;;;;11.30;7.50;;;9.50;99.90;;;;;;4985457;28;20440;-57
2024/02/16 09:43:08;;;;;;;12.93;7.47;;;9.60;99.90;;;;;;4986536;28;20428;-58
2024/02/16 09:45:34;;;;;;;13.30;7.03;;;9.70;99.90;;;;;;4990159;28;20518;-58
2024/02/16 09:47:59;;;;;;;11.13;7.23;;;9.80;99.90;;;;;;4990048;28;20311;-57
2024/02/16 09:50:26;;;;;;;14.03;7.50;;;9.90;99.80;;;;;;4993070;28;20173;-58
2024/02/16 09:52:53;;;;;;;12.10;6.40;;;10.10;93.90;;;;;;4990001;28;20627;-57
2024/02/16 09:55:19;;;;;;;11.83;6.20;;;10.20;92.00;;;;;;4985197;28;20471;-58
2024/02/16 09:57:45;;;;;;;11.00;6.13;;;10.50;88.70;;;;;;4989161;28;20468;-58
2024/02/16 10:00:12;;;;;;;17.97;7.40;;;10.70;84.40;;;;;;4985676;28;20558;-60
2024/02/16 10:02:44;;;;;;;25.60;8.40;;;11.00;77.80;;;;;;4985119;28;20479;-58
2024/02/16 10:05:17;;;;;;;7.50;5.67;;;11.20;74.80;;;;;;4984662;28;22115;-58
2024/02/16 10:07:44;;;;;;;10.53;5.13;;;11.40;71.80;;;;;;4981137;28;20483;-56
2024/02/16 10:10:28;;;;;;;16.10;5.70;;;11.70;71.30;;;;;;4985061;28;20951;-58
2024/02/16 10:13:04;;;;;;;12.73;6.70;;;12.00;70.40;;;;;;4988683;28;20997;-59
2024/02/16 10:15:30;;;;;;;11.40;5.00;;;12.10;67.60;;;;;;4994900;28;20984;-57
2024/02/16 10:18:02;;;;;;;10.20;5.17;;;12.20;66.50;;;;;;4983074;28;20440;-58
2024/02/16 10:20:29;;;;;;;9.53;5.40;;;12.30;66.60;;;;;;4984495;28;20862;-56
2024/02/16 10:23:08;;;;;;;13.53;4.50;;;12.40;66.50;;;;;;4981474;28;20439;-58
2024/02/16 10:25:39;;;;;;;11.03;5.60;;;12.50;65.20;;;;;;4985519;28;20459;-59
2024/02/16 10:28:07;;;;;;;6.93;4.50;;;12.70;64.80;;;;;;4980648;28;20456;-58
2024/02/16 10:30:38;;;;;;;8.70;5.07;;;12.80;64.50;;;;;;4985350;28;20523;-58
2024/02/16 10:33:05;;;;;;;15.30;5.00;;;12.90;64.30;;;;;;4988728;28;20460;-58
2024/02/16 10:35:34;;;;;;;11.87;5.00;;;13.10;63.20;;;;;;4985826;28;20444;-59
2024/02/16 10:38:04;;;;;;;10.37;5.37;;;13.30;62.40;;;;;;4986776;28;20470;-59
2024/02/16 10:40:32;;;;;;;8.57;4.13;;;13.50;62.20;;;;;;4984982;28;20510;-58
2024/02/16 10:43:03;;;;;;;9.40;4.27;;;13.60;61.50;;;;;;4983888;28;20881;-58
2024/02/16 10:45:31;;;;;;;9.27;4.70;;;13.70;61.10;;;;;;4983325;28;20472;-58
2024/02/16 10:47:57;;;;;;;6.00;3.73;;;13.80;60.90;;;;;;4985273;28;20444;-60
2024/02/16 10:50:23;;;;;;;7.17;4.20;;;13.90;61.00;;;;;;4986284;28;20432;-59
2024/02/16 10:52:49;;;;;;;6.20;3.50;;;14.00;60.30;;;;;;4984980;28;20181;-59
2024/02/16 10:55:16;;;;;;;11.37;4.30;;;14.10;59.50;;;;;;4986462;28;20460;-59
2024/02/16 10:57:42;;;;;;;6.57;3.63;;;14.20;59.70;;;;;;4985293;28;20460;-58
2024/02/16 11:00:11;;;;;;;6.30;3.60;;;14.20;59.40;;;;;;4986485;28;20463;-58
2024/02/16 11:02:55;;;;;;;6.00;3.33;;;14.40;59.30;;;;;;4982605;28;20654;-58
2024/02/16 11:05:32;;;;;;;4.80;2.63;;;14.60;59.20;;;;;;4984560;28;20490;-58
2024/02/16 11:08:05;;;;;;;8.07;3.50;;;14.80;58.80;;;;;;4984330;28;20446;-59
2024/02/16 11:10:31;;;;;;;4.77;2.90;;;15.10;58.30;;;;;;4981446;28;20428;-58
2024/02/16 11:13:04;;;;;;;5.10;2.27;;;15.30;57.40;;;;;;4966017;28;21551;-59
2024/02/16 11:15:34;;;;;;;6.10;2.33;;;15.50;57.70;;;;;;4991362;28;20177;-58
2024/02/16 11:18:01;;;;;;;4.30;2.27;;;15.70;57.80;;;;;;4984017;28;20475;-60
2024/02/16 11:20:27;;;;;;;6.50;1.80;;;15.80;57.50;;;;;;4986232;28;20463;-60
2024/02/16 11:22:53;;;;;;;8.50;2.10;;;16.00;57.00;;;;;;4984034;28;20511;-59
2024/02/16 11:25:30;;;;;;;12.13;2.33;;;16.20;56.70;;;;;;4984584;28;20177;-59
2024/02/16 11:27:56;;;;;;;3.20;2.20;;;16.30;56.40;;;;;;4985101;28;20459;-60
2024/02/16 11:30:21;;;;;;;3.07;1.90;;;16.40;56.20;;;;;;4986001;28;20433;-58
2024/02/16 11:32:47;;;;;;;3.17;2.10;;;16.50;56.10;;;;;;4987223;28;20427;-59
2024/02/16 11:35:12;;;;;;;4.27;2.27;;;16.50;55.20;;;;;;4991314;28;20239;-59
2024/02/16 11:37:38;;;;;;;6.47;2.20;;;16.50;55.70;;;;;;4990243;28;20212;-59
2024/02/16 11:40:08;;;;;;;8.50;2.27;;;16.60;55.70;;;;;;4989405;28;20207;-60
2024/02/16 11:42:34;;;;;;;2.37;2.10;;;16.70;55.50;;;;;;4988496;28;20708;-58
2024/02/16 11:45:00;;;;;;;7.60;2.50;;;16.90;55.10;;;;;;4987803;28;20431;-59
2024/02/16 11:47:26;;;;;;;4.47;2.63;;;16.90;54.80;;;;;;4987835;28;20452;-60
2024/02/16 11:50:05;;;;;;;3.87;1.93;;;16.90;55.50;;;;;;4994585;28;20791;-56
2024/02/16 11:52:32;;;;;;;3.60;1.97;;;17.10;55.10;;;;;;4984930;28;20272;-58
2024/02/16 11:55:03;;;;;;;7.37;2.13;;;17.30;55.00;;;;;;4988955;28;20991;-58
2024/02/16 11:57:29;;;;;;;4.53;2.10;;;17.50;54.50;;;;;;4988163;28;20448;-59
2024/02/16 11:59:55;;;;;;;5.93;1.83;;;17.60;54.30;;;;;;4986284;28;20560;-59
2024/02/16 12:02:24;;;;;;;8.10;2.70;;;17.70;54.10;;;;;;4991214;28;20440;-58
2024/02/16 12:05:01;;;;;;;7.47;2.50;;;17.80;54.10;;;;;;4990625;28;20418;-59
2024/02/16 12:07:27;;;;;;;4.73;1.60;;;18.00;54.20;;;;;;4988322;28;20535;-58
2024/02/16 12:10:00;;;;;;;15.47;2.40;;;18.30;53.90;;;;;;4988411;28;20934;-58
2024/02/16 12:12:27;;;;;;;11.17;3.03;;;18.40;53.40;;;;;;4988083;28;20467;-58
2024/02/16 12:14:55;;;;;;;6.13;2.33;;;18.40;53.50;;;;;;4984263;28;21485;-59
2024/02/16 12:17:21;;;;;;;7.20;2.37;;;18.10;52.80;;;;;;4984352;28;20482;-58
2024/02/16 12:19:47;;;;;;;8.03;2.40;;;17.80;53.60;;;;;;4985837;28;20820;-58
2024/02/16 12:22:18;;;;;;;6.70;2.40;;;17.50;54.00;;;;;;4988732;28;20173;-59
2024/02/16 12:24:45;;;;;;;7.03;2.50;;;17.30;54.20;;;;;;4987862;28;20451;-62
2024/02/16 12:27:10;;;;;;;10.87;2.97;;;17.00;54.80;;;;;;4987049;28;20539;-60
2024/02/16 12:29:36;;;;;;;6.33;2.50;;;16.80;55.30;;;;;;4979369;28;20527;-59
2024/02/16 12:32:02;;;;;;;10.37;3.63;;;16.70;55.60;;;;;;4985878;28;20637;-58
2024/02/16 12:34:28;;;;;;;9.40;4.40;;;16.50;56.10;;;;;;4984051;28;20647;-60
2024/02/16 12:36:53;;;;;;;7.13;3.70;;;16.40;56.10;;;;;;4982542;28;20676;-61
2024/02/16 12:39:19;;;;;;;7.70;3.53;;;16.30;56.30;;;;;;4989296;28;20292;-59
2024/02/16 12:41:46;;;;;;;7.70;4.00;;;16.20;56.50;;;;;;4984844;28;20178;-59
2024/02/16 12:44:12;;;;;;;9.17;4.07;;;16.10;57.10;;;;;;4989124;28;20656;-59